Time;durP1;ratioP1;P1;durP2;ratioP2;P2;SDS_P1;SDS_P2;PMS_P1;PMS_P2;Temp;Humidity;BMP_temperature;BMP_pressure;BME280_temperature;BME280_humidity;BME280_pressure;Samples;Min_cycle;Max_cycle;Signal;HPM_P1;HPM_P2
2021/09/05 00:01:16;;;;;;;15.30;11.10;;;;;;;14.00;81.06;102292.00;5006733;28;20215;-81
2021/09/05 00:03:42;;;;;;;14.80;10.67;;;;;;;13.93;81.68;102290.06;5006183;28;20223;-81
2021/09/05 00:06:07;;;;;;;15.03;10.90;;;;;;;13.94;81.72;102290.09;5005361;28;20246;-80
2021/09/05 00:08:33;;;;;;;14.93;10.37;;;;;;;13.92;81.43;102290.91;5005144;28;20196;-82
2021/09/05 00:10:58;;;;;;;14.47;10.03;;;;;;;13.93;81.63;102285.78;5005162;28;20192;-82
2021/09/05 00:13:24;;;;;;;18.27;10.80;;;;;;;13.95;81.03;102288.41;5005088;28;20194;-83
2021/09/05 00:15:49;;;;;;;14.47;10.17;;;;;;;13.86;81.99;102291.56;5004129;28;20180;-80
2021/09/05 00:18:14;;;;;;;18.47;10.27;;;;;;;13.83;81.66;102296.66;5002952;28;20214;-81
2021/09/05 00:20:40;;;;;;;13.53;9.57;;;;;;;13.84;80.80;102295.81;5000975;28;20211;-80
2021/09/05 00:23:05;;;;;;;15.23;10.80;;;;;;;13.79;81.39;102294.81;4998456;28;20271;-80
2021/09/05 00:25:31;;;;;;;16.80;10.90;;;;;;;13.80;81.66;102290.53;5000472;28;20220;-80
2021/09/05 00:27:57;;;;;;;13.03;9.93;;;;;;;13.80;81.60;102293.09;5000056;28;20187;-82
2021/09/05 00:30:23;;;;;;;16.33;9.77;;;;;;;13.78;81.10;102284.47;4999039;28;20226;-81
2021/09/05 00:32:48;;;;;;;13.97;10.60;;;;;;;13.75;80.94;102292.09;4982513;28;20188;-82
2021/09/05 00:35:14;;;;;;;16.60;9.93;;;;;;;13.72;81.89;102298.03;4998750;28;20168;-80
2021/09/05 00:37:40;;;;;;;15.07;10.70;;;;;;;13.73;81.86;102304.94;4981469;28;20544;-82
2021/09/05 00:40:06;;;;;;;14.77;10.67;;;;;;;13.71;81.44;102298.00;4997422;28;20212;-82
2021/09/05 00:42:32;;;;;;;16.23;10.43;;;;;;;13.68;81.68;102301.31;4980629;28;20211;-83
2021/09/05 00:44:57;;;;;;;14.77;9.73;;;;;;;13.59;82.38;102292.47;4997528;28;20874;-81
2021/09/05 00:47:22;;;;;;;14.00;9.53;;;;;;;13.62;81.45;102298.56;4996750;28;20219;-81
2021/09/05 00:49:48;;;;;;;15.13;10.80;;;;;;;13.62;82.00;102301.16;4979379;28;20212;-82
2021/09/05 00:52:15;;;;;;;14.60;10.20;;;;;;;13.61;81.50;102298.53;4996500;28;20191;-80
2021/09/05 00:54:42;;;;;;;16.30;10.90;;;;;;;13.51;82.07;102301.66;4995081;28;20210;-81
2021/09/05 00:57:15;;;;;;;14.77;9.80;;;;;;;13.52;82.17;102309.44;4994974;28;20184;-81
2021/09/05 00:59:45;;;;;;;12.63;9.60;;;;;;;13.50;82.34;102307.63;4994834;28;20206;-80
2021/09/05 01:02:10;;;;;;;14.03;9.83;;;;;;;13.48;81.64;102310.16;4998708;28;20180;-80
2021/09/05 01:04:36;;;;;;;12.73;9.57;;;;;;;13.50;81.56;102307.63;5000235;28;20293;-80
2021/09/05 01:07:04;;;;;;;13.17;9.80;;;;;;;13.45;81.47;102317.75;4998422;28;20207;-80
2021/09/05 01:09:30;;;;;;;14.57;9.80;;;;;;;13.40;81.88;102310.75;4999381;28;20176;-81
2021/09/05 01:11:59;;;;;;;15.77;9.77;;;;;;;13.40;81.35;102316.75;4981585;28;20564;-81
2021/09/05 01:14:25;;;;;;;17.03;9.80;;;;;;;13.35;81.83;102322.59;4980794;28;20184;-82
2021/09/05 01:16:53;;;;;;;14.13;9.77;;;;;;;13.34;81.44;102316.56;4979659;28;20176;-80
2021/09/05 01:19:39;;;;;;;15.80;9.33;;;;;;;13.26;81.60;102323.16;4982782;28;20249;-83
2021/09/05 01:22:23;;;;;;;13.97;10.17;;;;;;;13.26;81.66;102330.88;4996769;28;20164;-81
2021/09/05 01:25:20;;;;;;;15.83;9.87;;;;;;;13.17;81.71;102330.56;4996670;28;20239;-80
2021/09/05 01:28:07;;;;;;;17.33;8.97;;;;;;;13.13;82.50;102328.75;4996044;28;20183;-83
2021/09/05 01:30:52;;;;;;;15.83;9.37;;;;;;;13.17;81.63;102333.16;4995865;28;20215;-81
2021/09/05 01:33:52;;;;;;;14.87;9.07;;;;;;;13.05;82.36;102329.31;4935806;29;20702;-82
2021/09/05 01:36:46;;;;;;;13.53;9.20;;;;;;;13.06;82.46;102331.03;4993363;28;20657;-80
2021/09/05 01:39:30;;;;;;;13.23;8.67;;;;;;;13.02;81.47;102324.94;4995624;28;20191;-82
2021/09/05 01:42:15;;;;;;;13.37;9.27;;;;;;;13.02;81.54;102329.22;4995498;28;20204;-81
2021/09/05 01:45:19;;;;;;;14.60;8.67;;;;;;;12.93;81.91;102326.31;4979969;28;20234;-82
2021/09/05 01:48:05;;;;;;;15.90;9.27;;;;;;;12.98;82.50;102329.94;4989693;28;20188;-81
2021/09/05 01:50:51;;;;;;;15.27;9.20;;;;;;;12.89;81.96;102330.44;4979155;28;20700;-82
2021/09/05 01:53:29;;;;;;;13.57;9.33;;;;;;;12.88;81.87;102334.75;4995445;28;20192;-84
2021/09/05 01:56:13;;;;;;;13.50;9.27;;;;;;;12.81;82.36;102331.91;5008379;28;20184;-83
2021/09/05 01:58:59;;;;;;;11.60;9.37;;;;;;;12.78;81.98;102335.25;5007334;28;20196;-84
2021/09/05 02:02:03;;;;;;;14.13;8.50;;;;;;;12.73;81.79;102341.91;5005951;28;20251;-84
2021/09/05 02:04:48;;;;;;;12.23;8.60;;;;;;;12.71;82.04;102345.25;5007551;28;20190;-85
2021/09/05 02:07:43;;;;;;;13.90;8.70;;;;;;;12.71;82.03;102351.28;4975972;28;20185;-82
2021/09/05 02:10:27;;;;;;;11.00;7.70;;;;;;;12.63;82.82;102346.69;4987694;28;20263;-84
2021/09/05 02:13:23;;;;;;;13.73;8.23;;;;;;;12.63;82.33;102349.25;4984902;28;20181;-82
2021/09/05 02:16:08;;;;;;;11.27;8.13;;;;;;;12.64;82.40;102344.19;4986238;28;20197;-83
2021/09/05 02:18:47;;;;;;;15.07;8.73;;;;;;;12.57;82.58;102347.34;4968413;28;20285;-81
2021/09/05 02:21:31;;;;;;;14.97;8.93;;;;;;;12.54;82.37;102354.94;4984603;28;20636;-83
2021/09/05 02:24:13;;;;;;;10.83;7.83;;;;;;;12.57;82.73;102352.47;4984439;28;20199;-83
2021/09/05 02:27:11;;;;;;;14.00;7.87;;;;;;;12.55;82.12;102351.56;4981900;28;20189;-81
2021/09/05 02:29:45;;;;;;;12.00;7.90;;;;;;;12.50;82.46;102354.78;4983871;28;20216;-84
2021/09/05 02:32:37;;;;;;;13.13;7.93;;;;;;;12.46;82.67;102347.78;4981382;28;20542;-84
2021/09/05 02:35:32;;;;;;;12.67;8.20;;;;;;;12.44;82.50;102347.72;4983615;28;20192;-82
2021/09/05 02:38:27;;;;;;;12.30;7.40;;;;;;;12.44;82.12;102354.56;4982691;28;20220;-83
2021/09/05 02:41:07;;;;;;;13.37;7.83;;;;;;;12.43;82.51;102351.13;4992125;28;20758;-81
2021/09/05 02:43:51;;;;;;;14.50;8.27;;;;;;;12.36;82.62;102351.69;4987781;28;20239;-84
2021/09/05 02:46:31;;;;;;;12.93;7.10;;;;;;;12.36;82.72;102345.72;4989096;28;20209;-81
2021/09/05 02:49:16;;;;;;;12.83;7.10;;;;;;;12.33;83.04;102354.19;4972293;28;20235;-82
2021/09/05 02:52:01;;;;;;;11.57;7.17;;;;;;;12.36;82.47;102344.00;4986251;28;20275;-84
2021/09/05 02:54:47;;;;;;;11.40;7.23;;;;;;;12.28;82.12;102350.56;5003341;28;20259;-83
2021/09/05 02:57:41;;;;;;;12.00;7.50;;;;;;;12.21;82.63;102352.88;4990585;28;20184;-83
2021/09/05 03:00:26;;;;;;;11.47;7.17;;;;;;;12.18;82.52;102355.31;5000850;28;20227;-82
2021/09/05 03:03:09;;;;;;;12.40;7.30;;;;;;;12.20;82.29;102348.53;4984667;28;20271;-85
2021/09/05 03:05:53;;;;;;;10.97;8.03;;;;;;;12.16;82.07;102351.81;4983884;28;20219;-83
2021/09/05 03:08:48;;;;;;;10.87;6.60;;;;;;;12.15;82.38;102347.47;4989868;28;20196;-81
2021/09/05 03:11:35;;;;;;;11.47;6.93;;;;;;;12.11;82.70;102349.06;4988896;28;20215;-83
2021/09/05 03:14:31;;;;;;;11.73;7.43;;;;;;;12.13;82.96;102356.84;4978728;28;20208;-81
2021/09/05 03:17:15;;;;;;;14.03;7.33;;;;;;;12.11;82.42;102353.31;4981252;28;20211;-83
2021/09/05 03:20:13;;;;;;;10.30;7.10;;;;;;;12.07;82.64;102349.75;4981795;28;20209;-82
2021/09/05 03:23:05;;;;;;;11.63;7.73;;;;;;;12.07;82.92;102347.19;4957213;28;20264;-82
2021/09/05 03:25:56;;;;;;;11.27;7.03;;;;;;;12.07;82.58;102349.75;4979757;28;20559;-81
2021/09/05 03:29:03;;;;;;;14.27;7.23;;;;;;;12.05;82.99;102343.72;4980271;28;20282;-82
2021/09/05 03:31:53;;;;;;;9.90;6.63;;;;;;;11.99;83.19;102346.03;4986285;28;20195;-82
2021/09/05 03:34:51;;;;;;;10.73;7.23;;;;;;;11.90;83.26;102345.69;4957033;28;20196;-82
2021/09/05 03:37:42;;;;;;;10.70;7.13;;;;;;;11.95;82.84;102348.44;4997145;28;20204;-82
2021/09/05 03:40:26;;;;;;;12.73;7.10;;;;;;;11.89;83.25;102346.50;4983285;28;20219;-81
2021/09/05 03:43:20;;;;;;;10.90;6.77;;;;;;;11.89;83.00;102346.50;5000634;28;20196;-83
2021/09/05 03:46:01;;;;;;;11.00;7.20;;;;;;;11.87;83.35;102343.00;4996084;28;20215;-81
2021/09/05 03:49:02;;;;;;;10.67;6.97;;;;;;;11.87;83.17;102348.16;4970514;28;20189;-81
2021/09/05 03:51:27;;;;;;;12.20;6.83;;;;;;;11.82;83.02;102354.81;4990881;28;20708;-82
2021/09/05 03:53:53;;;;;;;11.50;7.03;;;;;;;11.82;83.32;102353.91;5006053;28;20203;-83
2021/09/05 03:56:21;;;;;;;9.90;7.10;;;;;;;11.80;83.00;102353.84;5004133;28;20709;-83
2021/09/05 03:58:49;;;;;;;9.53;6.50;;;;;;;11.79;83.39;102356.34;4990132;28;20559;-83
2021/09/05 04:01:15;;;;;;;10.83;6.97;;;;;;;11.79;83.38;102352.09;4997736;28;20203;-81
2021/09/05 04:03:46;;;;;;;13.10;7.13;;;;;;;11.75;83.19;102350.22;4985494;28;20196;-82
2021/09/05 04:06:13;;;;;;;10.37;6.50;;;;;;;11.74;82.55;102355.31;4969764;28;20212;-83
2021/09/05 04:08:42;;;;;;;9.97;7.07;;;;;;;11.74;83.33;102352.72;4969951;28;20224;-84
2021/09/05 04:11:07;;;;;;;12.00;6.80;;;;;;;11.71;82.90;102352.63;4975140;28;20203;-84
2021/09/05 04:13:32;;;;;;;10.07;7.07;;;;;;;11.65;82.00;102353.25;4987411;28;20187;-82
2021/09/05 04:15:58;;;;;;;14.80;7.07;;;;;;;11.58;83.06;102355.50;4986820;28;20192;-82
2021/09/05 04:18:23;;;;;;;9.77;6.40;;;;;;;11.58;82.25;102360.63;5003742;28;20186;-84
2021/09/05 04:20:48;;;;;;;11.83;6.93;;;;;;;11.54;82.32;102361.31;4984991;28;20727;-82
2021/09/05 04:23:14;;;;;;;9.50;6.80;;;;;;;11.57;82.36;102357.19;5001406;28;20513;-82
2021/09/05 04:25:40;;;;;;;10.63;5.97;;;;;;;11.52;82.25;102358.69;4984587;28;20209;-83
2021/09/05 04:28:06;;;;;;;10.43;6.93;;;;;;;11.46;82.39;102360.13;5004977;28;20601;-81
2021/09/05 04:30:31;;;;;;;10.50;6.47;;;;;;;11.43;81.69;102360.88;4986338;28;20215;-82
2021/09/05 04:32:56;;;;;;;10.53;6.13;;;;;;;11.43;82.29;102360.88;4985009;28;20689;-81
2021/09/05 04:35:22;;;;;;;11.40;6.60;;;;;;;11.40;82.73;102357.31;5001216;28;20552;-82
2021/09/05 04:37:47;;;;;;;10.33;6.03;;;;;;;11.35;81.92;102361.41;4998222;28;20585;-82
2021/09/05 04:40:13;;;;;;;10.60;6.73;;;;;;;11.28;81.55;102362.84;4994668;28;20208;-82
2021/09/05 04:42:38;;;;;;;9.33;6.27;;;;;;;11.29;81.42;102361.16;4986975;28;20249;-82
2021/09/05 04:45:04;;;;;;;8.53;6.13;;;;;;;11.29;80.92;102374.84;4998953;28;20227;-83
2021/09/05 04:47:29;;;;;;;10.63;6.43;;;;;;;11.26;81.13;102369.59;4984799;28;20200;-83
2021/09/05 04:49:55;;;;;;;9.70;6.27;;;;;;;11.17;81.09;102376.03;5002469;28;20604;-82
2021/09/05 04:52:20;;;;;;;8.87;6.10;;;;;;;11.19;80.91;102370.16;5003649;28;20381;-83
2021/09/05 04:54:45;;;;;;;8.17;5.40;;;;;;;11.16;80.46;102370.00;4993881;28;20220;-82
2021/09/05 04:57:11;;;;;;;9.10;6.30;;;;;;;11.10;80.82;102372.34;4994003;28;20217;-81
2021/09/05 04:59:36;;;;;;;7.73;5.87;;;;;;;11.12;80.24;102372.41;5004162;28;20192;-83
2021/09/05 05:02:02;;;;;;;9.43;7.03;;;;;;;11.02;81.16;102376.25;4995407;28;20193;-83
2021/09/05 05:04:27;;;;;;;13.47;6.40;;;;;;;11.03;80.98;102378.03;4965591;28;20254;-82
2021/09/05 05:06:52;;;;;;;11.30;6.70;;;;;;;11.00;81.65;102383.00;4976009;28;20793;-81
2021/09/05 05:09:17;;;;;;;10.27;6.03;;;;;;;10.99;81.95;102380.38;4964694;28;20654;-83
2021/09/05 05:11:43;;;;;;;8.43;6.40;;;;;;;11.08;81.94;102384.22;4981139;28;20665;-84
2021/09/05 05:14:10;;;;;;;9.50;6.73;;;;;;;11.07;82.42;102397.81;4961082;28;20243;-81
2021/09/05 05:16:36;;;;;;;10.73;6.53;;;;;;;11.13;82.12;102392.97;4978975;28;20195;-83
2021/09/05 05:19:02;;;;;;;10.07;6.07;;;;;;;11.17;81.71;102393.97;4962252;28;20272;-82
2021/09/05 05:21:28;;;;;;;10.20;6.17;;;;;;;11.23;82.25;102392.53;4986676;28;20214;-83
2021/09/05 05:23:57;;;;;;;12.23;6.10;;;;;;;11.29;81.81;102392.78;4994914;28;20188;-83
2021/09/05 05:26:24;;;;;;;10.70;6.37;;;;;;;11.30;82.38;102393.69;4996518;28;20287;-82
2021/09/05 05:28:49;;;;;;;11.17;6.37;;;;;;;11.38;82.00;102390.59;4977278;28;20604;-83
2021/09/05 05:31:15;;;;;;;10.50;6.03;;;;;;;11.50;82.01;102395.34;4983317;28;20296;-82
2021/09/05 05:33:40;;;;;;;8.70;6.30;;;;;;;11.54;81.90;102392.09;4983593;28;20216;-83
2021/09/05 05:36:06;;;;;;;7.43;5.17;;;;;;;11.67;81.60;102394.38;4980850;28;20186;-83
2021/09/05 05:38:31;;;;;;;8.17;5.63;;;;;;;11.76;81.83;102394.75;4963863;28;20298;-83
2021/09/05 05:40:56;;;;;;;8.23;5.77;;;;;;;11.89;81.54;102397.84;4988172;28;20250;-82
2021/09/05 05:43:22;;;;;;;7.93;5.53;;;;;;;12.01;81.57;102405.13;4993811;28;20196;-82
2021/09/05 05:45:48;;;;;;;9.30;5.60;;;;;;;12.10;82.36;102408.06;4964243;28;20207;-82
2021/09/05 05:48:13;;;;;;;9.43;6.13;;;;;;;12.22;81.04;102406.81;4997701;28;20192;-83
2021/09/05 05:50:39;;;;;;;7.67;5.70;;;;;;;12.32;81.63;102408.94;4982626;28;20210;-84
2021/09/05 05:53:04;;;;;;;9.10;5.20;;;;;;;12.45;80.76;102410.28;5001820;28;20258;-83
2021/09/05 05:55:30;;;;;;;9.20;5.60;;;;;;;12.50;81.08;102407.03;4986457;28;20184;-83
2021/09/05 05:57:56;;;;;;;7.40;5.33;;;;;;;12.61;81.04;102400.59;5002645;28;20218;-82
2021/09/05 06:00:25;;;;;;;8.87;5.83;;;;;;;12.64;80.91;102402.41;4985064;28;20247;-82
2021/09/05 06:02:51;;;;;;;8.70;5.27;;;;;;;12.80;80.35;102402.13;5002596;28;20517;-83
2021/09/05 06:05:16;;;;;;;9.37;5.17;;;;;;;12.94;79.64;102406.94;5003416;28;20227;-82
2021/09/05 06:07:42;;;;;;;7.97;5.10;;;;;;;13.06;79.52;102403.06;5004996;28;20203;-82
2021/09/05 06:10:08;;;;;;;8.13;4.57;;;;;;;13.19;79.74;102405.22;5003715;28;20238;-82
2021/09/05 06:12:33;;;;;;;7.53;4.57;;;;;;;13.28;78.54;102401.28;4987552;28;20189;-82
2021/09/05 06:14:58;;;;;;;9.70;4.63;;;;;;;13.42;77.86;102409.44;4998878;28;20188;-82
2021/09/05 06:17:24;;;;;;;7.03;4.50;;;;;;;13.55;78.07;102406.44;5004348;28;20207;-83
2021/09/05 06:19:49;;;;;;;6.17;4.53;;;;;;;13.63;77.23;102405.84;5005121;28;20260;-82
2021/09/05 06:22:14;;;;;;;7.77;4.70;;;;;;;13.80;77.53;102404.69;5005034;28;20191;-83
2021/09/05 06:24:40;;;;;;;6.57;4.60;;;;;;;13.91;76.31;102408.47;4972410;28;20336;-82
2021/09/05 06:27:05;;;;;;;6.03;4.10;;;;;;;14.01;76.73;102415.69;4984878;28;20284;-83
2021/09/05 06:29:30;;;;;;;8.93;4.97;;;;;;;13.99;76.27;102403.59;4990056;28;20212;-81
2021/09/05 06:31:56;;;;;;;6.63;4.67;;;;;;;14.22;75.33;102411.19;4983378;28;20557;-81
2021/09/05 06:34:21;;;;;;;7.47;4.23;;;;;;;14.31;76.18;102414.03;4983673;28;20212;-81
2021/09/05 06:36:46;;;;;;;7.73;4.30;;;;;;;14.43;75.65;102411.84;4983109;28;20596;-82
2021/09/05 06:39:13;;;;;;;7.07;4.20;;;;;;;14.50;74.75;102416.31;4984924;28;20212;-81
2021/09/05 06:41:39;;;;;;;6.77;4.07;;;;;;;14.60;73.89;102409.72;4999505;28;20239;-82
2021/09/05 06:44:04;;;;;;;7.33;4.33;;;;;;;14.64;73.53;102416.72;4993021;28;20216;-82
2021/09/05 06:46:29;;;;;;;5.33;4.13;;;;;;;14.78;73.51;102420.56;4995951;28;20228;-81
2021/09/05 06:48:55;;;;;;;5.43;3.70;;;;;;;14.99;72.78;102418.56;4995010;28;20289;-81
2021/09/05 06:51:22;;;;;;;7.93;4.07;;;;;;;15.05;71.86;102416.16;4991101;28;20204;-81
2021/09/05 06:53:47;;;;;;;6.27;3.97;;;;;;;15.31;72.26;102415.97;4988148;28;20668;-82
2021/09/05 06:56:12;;;;;;;6.50;3.63;;;;;;;15.37;70.57;102416.16;4988970;28;20192;-82
2021/09/05 06:58:38;;;;;;;6.43;4.23;;;;;;;15.44;71.33;102418.09;4993712;28;20192;-81
2021/09/05 07:01:04;;;;;;;5.80;3.80;;;;;;;15.70;70.24;102413.53;5001372;28;20214;-80
2021/09/05 07:03:29;;;;;;;5.90;3.80;;;;;;;15.85;70.32;102408.72;5000487;28;20195;-82
2021/09/05 07:05:55;;;;;;;6.53;4.47;;;;;;;15.98;68.94;102411.63;4995760;28;20246;-83
2021/09/05 07:08:21;;;;;;;6.70;4.10;;;;;;;16.10;69.24;102414.47;4982141;28;20287;-83
2021/09/05 07:10:46;;;;;;;5.10;3.73;;;;;;;16.07;68.94;102411.81;4979660;28;20208;-82
2021/09/05 07:13:12;;;;;;;4.80;3.03;;;;;;;16.31;68.54;102408.91;4978696;28;20732;-83
2021/09/05 07:15:37;;;;;;;4.80;3.37;;;;;;;16.41;68.10;102408.28;4978912;28;20185;-82
2021/09/05 07:18:03;;;;;;;6.60;3.80;;;;;;;16.65;67.18;102408.78;4983581;28;20212;-78
2021/09/05 07:20:28;;;;;;;6.60;3.57;;;;;;;16.80;66.97;102409.94;5001947;28;20227;-80
2021/09/05 07:22:55;;;;;;;7.37;4.07;;;;;;;16.83;65.72;102414.31;4988386;28;20184;-81
2021/09/05 07:25:21;;;;;;;4.80;3.60;;;;;;;16.95;66.18;102414.56;5006166;28;20242;-81
2021/09/05 07:27:47;;;;;;;6.87;3.83;;;;;;;17.07;65.25;102412.19;5001329;28;20192;-81
2021/09/05 07:30:13;;;;;;;5.87;3.77;;;;;;;17.08;64.95;102419.97;5006003;28;20229;-81
2021/09/05 07:32:38;;;;;;;6.10;3.30;;;;;;;17.38;64.65;102419.66;5005259;28;20424;-79
2021/09/05 07:35:05;;;;;;;6.40;3.53;;;;;;;17.47;65.01;102422.44;5005356;28;20188;-81
2021/09/05 07:37:30;;;;;;;6.07;3.67;;;;;;;17.62;63.09;102422.66;4981495;28;20258;-80
2021/09/05 07:39:56;;;;;;;5.97;3.57;;;;;;;17.65;63.95;102413.25;5004868;28;20254;-82
2021/09/05 07:42:21;;;;;;;4.23;3.40;;;;;;;17.73;63.56;102415.97;5005396;28;20198;-78
2021/09/05 07:44:46;;;;;;;5.40;3.73;;;;;;;17.85;63.03;102418.72;5010739;28;20199;-80
2021/09/05 07:47:12;;;;;;;4.57;3.90;;;;;;;17.87;61.87;102415.28;5014453;28;20212;-80
2021/09/05 07:49:37;;;;;;;5.07;3.63;;;;;;;18.00;61.26;102417.22;5003986;28;20192;-78
2021/09/05 07:52:03;;;;;;;6.30;3.60;;;;;;;18.05;62.29;102419.91;5005788;28;20251;-81
2021/09/05 07:54:28;;;;;;;6.27;3.90;;;;;;;18.34;62.54;102418.59;5009329;28;20208;-79
2021/09/05 07:56:53;;;;;;;5.57;4.10;;;;;;;18.41;62.30;102416.09;4985582;28;20185;-79
2021/09/05 07:59:19;;;;;;;5.97;3.70;;;;;;;18.49;62.06;102418.78;4985574;28;20252;-78
2021/09/05 08:01:44;;;;;;;8.43;4.30;;;;;;;18.60;60.66;102425.84;4989822;28;20208;-78
2021/09/05 08:04:09;;;;;;;4.83;3.10;;;;;;;18.79;59.39;102432.16;5004593;28;20231;-79
2021/09/05 08:06:34;;;;;;;4.77;3.43;;;;;;;19.15;58.58;102420.41;5003716;28;20218;-80
2021/09/05 08:09:00;;;;;;;4.77;3.77;;;;;;;19.34;58.80;102427.53;4993228;28;20305;-79
2021/09/05 08:11:26;;;;;;;5.20;3.67;;;;;;;19.28;58.93;102426.63;5010926;28;20588;-79
2021/09/05 08:13:52;;;;;;;5.57;3.40;;;;;;;19.32;58.41;102426.66;5025376;28;20230;-81
2021/09/05 08:16:17;;;;;;;5.43;3.23;;;;;;;19.46;56.89;102422.47;5003110;28;20288;-79
2021/09/05 08:18:43;;;;;;;5.50;3.70;;;;;;;19.30;56.23;102423.16;4983892;28;20184;-80
2021/09/05 08:21:08;;;;;;;4.13;3.43;;;;;;;19.51;57.40;102431.16;4994839;28;20222;-79
2021/09/05 08:23:35;;;;;;;5.93;4.17;;;;;;;19.57;59.08;102430.38;5005360;28;20190;-82
2021/09/05 08:26:02;;;;;;;4.63;3.53;;;;;;;19.68;56.68;102426.09;5004144;28;20231;-82
2021/09/05 08:28:27;;;;;;;5.23;3.50;;;;;;;19.53;57.62;102432.03;5004051;28;20545;-79
2021/09/05 08:30:52;;;;;;;5.17;3.83;;;;;;;19.93;57.70;102433.22;5001865;28;20287;-82
2021/09/05 08:33:18;;;;;;;6.77;4.23;;;;;;;20.00;56.29;102427.19;5002139;28;20192;-80
2021/09/05 08:35:45;;;;;;;4.70;3.40;;;;;;;20.28;55.74;102432.63;5002640;28;20187;-80
2021/09/05 08:38:11;;;;;;;5.23;3.27;;;;;;;20.54;54.87;102430.97;4986228;28;20232;-81
2021/09/05 08:40:43;;;;;;;5.47;3.67;;;;;;;20.35;54.90;102436.09;5002293;28;21019;-82
2021/09/05 08:43:09;;;;;;;7.70;4.07;;;;;;;20.56;54.75;102434.47;5005607;28;20541;-83
2021/09/05 08:45:36;;;;;;;5.43;4.17;;;;;;;20.69;53.93;102438.84;5013467;28;20246;-80
2021/09/05 08:48:02;;;;;;;5.87;4.27;;;;;;;20.76;55.93;102445.84;5012646;28;20192;-81
2021/09/05 08:50:28;;;;;;;7.13;4.00;;;;;;;20.97;54.68;102448.56;4982680;28;20220;-78
2021/09/05 08:52:54;;;;;;;5.40;4.00;;;;;;;21.17;54.83;102444.25;4983813;28;20185;-83
2021/09/05 08:55:20;;;;;;;5.67;4.37;;;;;;;21.09;52.85;102445.09;4983328;28;20673;-81
2021/09/05 08:57:45;;;;;;;5.80;3.37;;;;;;;21.38;52.85;102449.47;4982967;28;20193;-79
2021/09/05 09:00:11;;;;;;;4.20;3.53;;;;;;;21.67;53.00;102454.69;4983414;28;20209;-82
2021/09/05 09:02:48;;;;;;;5.40;3.90;;;;;;;21.51;53.25;102450.38;4982149;28;20189;-82
2021/09/05 09:05:13;;;;;;;5.60;3.90;;;;;;;21.56;54.54;102456.44;4998994;28;20207;-79
2021/09/05 09:07:46;;;;;;;6.60;4.10;;;;;;;21.72;53.64;102450.38;4984684;28;20619;-82
2021/09/05 09:10:13;;;;;;;5.57;3.87;;;;;;;21.84;52.66;102451.25;4998711;28;20199;-80
2021/09/05 09:12:41;;;;;;;6.27;4.30;;;;;;;22.11;52.46;102453.81;4989182;28;20252;-80
2021/09/05 09:15:25;;;;;;;5.43;3.93;;;;;;;22.20;51.95;102456.41;4982302;28;20279;-78
2021/09/05 09:17:56;;;;;;;5.97;4.07;;;;;;;22.46;51.38;102445.06;4982049;28;20203;-80
2021/09/05 09:20:35;;;;;;;6.67;4.20;;;;;;;22.67;51.78;102445.84;4981562;28;20243;-79
2021/09/05 09:23:10;;;;;;;5.70;3.47;;;;;;;22.62;48.96;102450.22;4981830;28;20184;-79
2021/09/05 09:25:35;;;;;;;4.10;3.70;;;;;;;22.77;49.22;102444.03;4996757;28;20751;-80
2021/09/05 09:28:01;;;;;;;6.27;3.90;;;;;;;24.84;45.70;102442.19;4989941;28;20240;-80
2021/09/05 09:30:34;;;;;;;5.70;4.63;;;;;;;31.70;33.08;102414.88;5000414;28;20213;-77
2021/09/05 09:32:59;;;;;;;5.63;4.17;;;;;;;31.45;31.12;102424.81;4986268;28;20188;-78
2021/09/05 09:35:25;;;;;;;5.63;3.77;;;;;;;31.74;30.59;102421.78;4979461;28;20219;-81
2021/09/05 09:37:50;;;;;;;5.47;4.00;;;;;;;31.67;31.56;102421.19;4980540;28;20306;-80
2021/09/05 09:40:25;;;;;;;6.50;4.00;;;;;;;30.41;33.93;102418.34;4980706;28;20212;-80
2021/09/05 09:42:51;;;;;;;4.95;3.78;;;;;;;28.54;37.53;102428.16;4981939;28;20199;-79
2021/09/05 09:45:17;;;;;;;8.07;3.97;;;;;;;27.18;39.31;102428.28;4990935;28;20216;-80
2021/09/05 09:47:45;;;;;;;5.47;4.15;;;;;;;25.55;42.01;102431.53;4997606;28;20242;-78
2021/09/05 09:50:11;;;;;;;5.10;4.32;;;;;;;24.36;44.34;102429.69;4981229;28;20271;-80
2021/09/05 09:52:37;;;;;;;4.82;4.07;;;;;;;24.39;44.46;102421.78;4959685;28;20262;-78
2021/09/05 09:55:03;;;;;;;7.40;4.85;;;;;;;24.35;44.93;102427.97;4994885;28;20179;-80
2021/09/05 09:57:29;;;;;;;5.43;3.90;;;;;;;24.61;45.56;102423.28;4991220;28;20280;-81
2021/09/05 09:59:54;;;;;;;5.18;4.18;;;;;;;24.85;46.63;102417.72;5016396;28;20238;-80
2021/09/05 10:02:23;;;;;;;5.47;4.32;;;;;;;24.97;44.97;102423.66;5016553;28;20569;-80
2021/09/05 10:04:51;;;;;;;6.22;4.20;;;;;;;24.81;44.88;102424.75;5017222;28;20179;-80
2021/09/05 10:07:18;;;;;;;6.85;4.43;;;;;;;25.02;45.39;102423.59;4997348;28;20212;-79
2021/09/05 10:09:46;;;;;;;6.30;4.80;;;;;;;25.28;45.85;102427.56;5007182;28;20206;-82
2021/09/05 10:12:11;;;;;;;6.97;5.20;;;;;;;24.93;44.31;102428.97;5007137;28;20642;-80
2021/09/05 10:14:38;;;;;;;6.13;4.60;;;;;;;24.56;44.92;102427.69;4998818;28;20220;-80
2021/09/05 10:17:05;;;;;;;5.75;4.60;;;;;;;24.89;44.99;102428.16;5014719;28;20186;-79
2021/09/05 10:19:31;;;;;;;6.32;4.72;;;;;;;24.47;45.66;102427.78;5016352;28;20274;-81
2021/09/05 10:21:57;;;;;;;5.15;4.60;;;;;;;24.70;45.76;102424.03;5004020;28;20243;-80
2021/09/05 10:24:22;;;;;;;6.75;4.35;;;;;;;24.64;45.47;102424.09;4997379;28;20184;-79
2021/09/05 10:27:06;;;;;;;6.05;4.55;;;;;;;24.75;44.78;102416.97;4997517;28;20196;-80
2021/09/05 10:29:31;;;;;;;5.47;4.63;;;;;;;24.98;44.08;102414.03;4999664;28;20242;-79
2021/09/05 10:31:57;;;;;;;6.78;5.07;;;;;;;25.00;44.71;102418.34;5000573;28;20585;-78
2021/09/05 10:34:37;;;;;;;6.13;4.88;;;;;;;25.03;44.02;102415.69;4997850;28;20206;-81
2021/09/05 10:37:15;;;;;;;7.00;5.28;;;;;;;24.49;44.77;102416.41;5011074;28;20266;-80
2021/09/05 10:40:09;;;;;;;7.20;4.90;;;;;;;25.45;43.87;102412.44;5017645;28;20172;-81
2021/09/05 10:42:59;;;;;;;7.25;5.28;;;;;;;25.49;44.85;102406.25;4999315;28;20187;-81
2021/09/05 10:45:25;;;;;;;6.88;4.93;;;;;;;25.44;43.91;102407.22;4980898;28;20231;-81
2021/09/05 10:47:50;;;;;;;7.97;5.70;;;;;;;25.09;43.25;102405.13;4999715;28;20191;-81
2021/09/05 10:50:39;;;;;;;7.90;4.90;;;;;;;24.56;44.37;102406.72;5000818;28;20212;-80
2021/09/05 10:53:19;;;;;;;9.07;5.50;;;;;;;25.03;46.06;102407.84;5001263;28;20192;-81
2021/09/05 10:56:09;;;;;;;6.60;4.65;;;;;;;25.23;43.42;102412.78;5001864;28;20187;-80
2021/09/05 10:58:40;;;;;;;7.00;5.10;;;;;;;24.78;43.22;102405.59;4998950;28;20192;-80
2021/09/05 11:01:20;;;;;;;6.90;4.60;;;;;;;25.34;44.05;102403.88;4998492;28;20230;-80
2021/09/05 11:04:20;;;;;;;7.28;4.63;;;;;;;24.79;43.77;102402.94;4997414;28;20199;-80
2021/09/05 11:06:57;;;;;;;5.72;5.00;;;;;;;25.47;44.65;102399.28;4998263;28;20196;-78
2021/09/05 11:09:24;;;;;;;7.50;5.50;;;;;;;25.26;43.40;102399.59;4996980;28;20288;-78
2021/09/05 11:12:04;;;;;;;6.55;5.20;;;;;;;25.26;44.20;102392.66;4999656;28;20603;-80
2021/09/05 11:14:36;;;;;;;7.68;5.30;;;;;;;24.75;43.99;102396.00;4998173;28;20219;-80
2021/09/05 11:17:08;;;;;;;6.18;5.07;;;;;;;25.54;42.75;102398.28;5001050;28;20176;-79
2021/09/05 11:19:43;;;;;;;8.13;4.85;;;;;;;25.93;43.32;102381.84;5001808;28;20672;-82
2021/09/05 11:22:13;;;;;;;7.80;5.63;;;;;;;25.26;42.56;102391.72;5002404;28;20644;-81
2021/09/05 11:24:40;;;;;;;5.93;5.07;;;;;;;25.43;42.48;102394.97;5002420;28;20211;-82
2021/09/05 11:27:08;;;;;;;8.10;5.32;;;;;;;25.22;43.21;102400.53;5002029;28;20209;-82
2021/09/05 11:29:34;;;;;;;6.30;5.13;;;;;;;25.43;42.28;102387.13;4997857;28;20184;-80
2021/09/05 11:32:00;;;;;;;9.35;5.30;;;;;;;25.90;41.59;102393.25;4996194;28;20273;-79
2021/09/05 11:34:26;;;;;;;7.15;5.57;;;;;;;25.91;43.46;102391.47;4982678;28;20260;-80
2021/09/05 11:36:53;;;;;;;5.85;5.20;;;;;;;25.91;42.69;102397.59;5001378;28;20661;-80
2021/09/05 11:39:19;;;;;;;6.43;5.10;;;;;;;25.53;41.11;102394.81;5002044;28;20266;-79
2021/09/05 11:41:50;;;;;;;7.15;5.15;;;;;;;25.57;42.51;102395.63;5001844;28;20659;-80